createdAt,value
2022-12-02T00:01:04.877Z,10.82
2022-12-02T00:03:36.554Z,11.25
2022-12-02T00:06:05.892Z,11.45
2022-12-02T00:08:37.170Z,11.25
2022-12-02T00:11:23.952Z,11.00
2022-12-02T00:13:52.379Z,11.90
2022-12-02T00:16:22.478Z,10.90
2022-12-02T00:18:51.230Z,11.80
2022-12-02T00:21:20.026Z,11.18
2022-12-02T00:23:49.859Z,11.90
2022-12-02T00:26:18.328Z,11.60
2022-12-02T00:28:46.361Z,12.10
2022-12-02T00:31:16.546Z,11.57
2022-12-02T00:33:44.611Z,12.02
2022-12-02T00:36:12.832Z,11.73
2022-12-02T00:38:41.007Z,12.15
2022-12-02T00:41:10.485Z,12.18
2022-12-02T00:43:55.923Z,11.75
2022-12-02T00:46:33.015Z,12.63
2022-12-02T00:49:02.843Z,11.73
2022-12-02T00:51:31.051Z,10.95
2022-12-02T00:53:59.442Z,12.23
2022-12-02T00:56:28.971Z,12.02
2022-12-02T00:58:57.081Z,12.00
2022-12-02T01:01:25.604Z,11.73
2022-12-02T01:03:54.077Z,12.65
2022-12-02T01:06:22.653Z,12.20
2022-12-02T01:08:50.935Z,13.15
2022-12-02T01:11:19.042Z,13.75
2022-12-02T01:13:48.559Z,12.15
2022-12-02T01:16:16.924Z,12.80
2022-12-02T01:18:45.146Z,11.93
2022-12-02T01:21:13.260Z,13.07
2022-12-02T01:23:41.641Z,12.98
2022-12-02T01:26:09.685Z,12.57
2022-12-02T01:28:38.327Z,13.00
2022-12-02T01:31:07.983Z,12.27
2022-12-02T01:33:36.050Z,13.02
2022-12-02T01:36:04.093Z,12.90
2022-12-02T01:38:32.155Z,13.07
2022-12-02T01:41:00.712Z,13.57
2022-12-02T01:43:29.570Z,13.02
2022-12-02T01:45:58.048Z,12.32
2022-12-02T01:48:27.690Z,12.30
2022-12-02T01:50:55.799Z,12.95
2022-12-02T01:53:24.674Z,13.35
2022-12-02T01:55:52.840Z,13.20
2022-12-02T01:58:24.406Z,13.20
2022-12-02T02:00:53.120Z,13.02
2022-12-02T02:03:21.379Z,12.25
2022-12-02T02:05:51.614Z,13.25
2022-12-02T02:08:19.874Z,12.82
2022-12-02T02:10:48.991Z,12.82
2022-12-02T02:13:18.798Z,12.95
2022-12-02T02:15:47.625Z,13.25
2022-12-02T02:18:17.551Z,13.20
2022-12-02T02:20:45.956Z,12.88
2022-12-02T02:23:23.203Z,12.88
2022-12-02T02:25:54.368Z,13.27
2022-12-02T02:28:24.595Z,13.13
2022-12-02T02:30:55.066Z,13.77
2022-12-02T02:33:25.215Z,12.85
2022-12-02T02:35:53.402Z,13.15
2022-12-02T02:38:25.169Z,12.52
2022-12-02T02:40:54.769Z,13.38
2022-12-02T02:43:26.006Z,13.18
2022-12-02T02:45:55.538Z,12.40
2022-12-02T02:48:24.577Z,12.30
2022-12-02T02:50:53.067Z,11.80
2022-12-02T02:53:26.908Z,12.05
2022-12-02T02:55:55.324Z,11.75
2022-12-02T02:58:25.457Z,12.65
2022-12-02T03:00:56.553Z,11.82
2022-12-02T03:03:29.012Z,12.00
2022-12-02T03:05:57.771Z,12.27
2022-12-02T03:08:28.974Z,10.90
2022-12-02T03:10:58.568Z,11.50
2022-12-02T03:13:27.883Z,12.20
2022-12-02T03:15:56.421Z,11.30
2022-12-02T03:18:25.166Z,11.20
2022-12-02T03:20:53.265Z,10.68
2022-12-02T03:23:21.776Z,10.75
2022-12-02T03:25:51.446Z,10.52
2022-12-02T03:28:20.182Z,11.25
2022-12-02T03:30:48.448Z,10.48
2022-12-02T03:33:16.725Z,10.23
2022-12-02T03:35:45.082Z,10.85
2022-12-02T03:38:13.518Z,11.07
2022-12-02T03:40:41.673Z,10.68
2022-12-02T03:43:22.179Z,10.95
2022-12-02T03:45:50.643Z,10.05
2022-12-02T03:48:21.792Z,10.40
2022-12-02T03:50:51.555Z,9.88
2022-12-02T03:53:20.147Z,9.45
2022-12-02T03:55:48.825Z,9.75
2022-12-02T03:58:17.040Z,10.02
2022-12-02T04:00:46.540Z,10.27
2022-12-02T04:03:14.632Z,9.73
2022-12-02T04:05:49.080Z,10.55
2022-12-02T04:08:17.707Z,10.43
2022-12-02T04:10:45.799Z,10.43
2022-12-02T04:13:13.819Z,10.02
2022-12-02T04:15:41.908Z,9.40
2022-12-02T04:18:11.541Z,9.77
2022-12-02T04:20:39.551Z,9.52
2022-12-02T04:23:07.635Z,9.77
2022-12-02T04:25:35.782Z,9.70
2022-12-02T04:28:03.901Z,9.68
2022-12-02T04:30:32.118Z,9.52
2022-12-02T04:33:00.338Z,9.57
2022-12-02T04:35:29.813Z,9.52
2022-12-02T04:37:58.366Z,9.20
2022-12-02T04:40:26.711Z,9.15
2022-12-02T04:42:56.346Z,8.77
2022-12-02T04:45:24.389Z,9.07
2022-12-02T04:47:52.834Z,9.50
2022-12-02T04:50:21.026Z,9.23
2022-12-02T04:52:50.475Z,9.20
2022-12-02T04:55:18.738Z,9.60
2022-12-02T04:57:46.784Z,9.02
2022-12-02T05:00:16.240Z,8.90
2022-12-02T05:02:44.718Z,9.00
2022-12-02T05:05:13.309Z,8.95
2022-12-02T05:07:41.440Z,8.40
2022-12-02T05:10:12.030Z,8.73
2022-12-02T05:12:40.047Z,8.85
2022-12-02T05:15:09.432Z,8.40
2022-12-02T05:17:41.922Z,8.85
2022-12-02T05:20:11.883Z,9.10
2022-12-02T05:22:40.189Z,8.50
2022-12-02T05:25:08.951Z,8.18
2022-12-02T05:27:38.515Z,8.82
2022-12-02T05:30:09.093Z,8.35
2022-12-02T05:32:37.240Z,8.63
2022-12-02T05:35:06.049Z,8.57
2022-12-02T05:37:34.240Z,8.80
2022-12-02T05:40:03.804Z,8.70
2022-12-02T05:42:32.038Z,8.30
2022-12-02T05:45:08.102Z,8.05
2022-12-02T05:47:36.376Z,8.35
2022-12-02T05:50:12.365Z,8.50
2022-12-02T05:52:40.449Z,8.18
2022-12-02T05:55:15.392Z,7.93
2022-12-02T05:57:43.639Z,8.40
2022-12-02T06:00:19.352Z,8.15
2022-12-02T06:02:50.476Z,8.23
2022-12-02T06:05:21.067Z,8.15
2022-12-02T06:07:51.360Z,7.80
2022-12-02T06:10:26.282Z,8.07
2022-12-02T06:12:57.273Z,8.02
2022-12-02T06:15:29.031Z,8.25
2022-12-02T06:17:58.083Z,8.10
2022-12-02T06:20:29.826Z,8.43
2022-12-02T06:22:58.864Z,7.70
2022-12-02T06:25:30.109Z,7.88
2022-12-02T06:28:07.361Z,7.82
2022-12-02T06:30:40.498Z,8.32
2022-12-02T06:33:22.360Z,8.52
2022-12-02T06:35:51.420Z,7.80
2022-12-02T06:38:28.041Z,7.63
2022-12-02T06:40:56.448Z,8.30
2022-12-02T06:43:27.988Z,8.10
2022-12-02T06:45:58.118Z,8.57
2022-12-02T06:48:29.264Z,8.57
2022-12-02T06:51:01.595Z,7.97
2022-12-02T06:53:37.648Z,8.63
2022-12-02T06:56:08.633Z,7.93
2022-12-02T06:58:41.112Z,8.18
2022-12-02T07:01:22.021Z,7.90
2022-12-02T07:04:18.984Z,8.23
2022-12-02T07:06:51.510Z,7.95
2022-12-02T07:09:23.845Z,7.95
2022-12-02T07:11:54.363Z,8.07
2022-12-02T07:14:28.433Z,8.48
2022-12-02T07:17:01.860Z,8.20
2022-12-02T07:19:37.699Z,8.10
2022-12-02T07:22:15.502Z,7.80
2022-12-02T07:24:44.181Z,8.38
2022-12-02T07:27:21.964Z,8.05
2022-12-02T07:29:51.042Z,7.88
2022-12-02T07:32:20.894Z,7.85
2022-12-02T07:34:49.330Z,7.75
2022-12-02T07:37:17.753Z,7.93
2022-12-02T07:39:45.916Z,8.50
2022-12-02T07:42:14.880Z,8.40
2022-12-02T07:44:44.575Z,8.27
2022-12-02T07:47:12.714Z,7.45
2022-12-02T07:49:42.239Z,7.85
2022-12-02T07:52:10.356Z,8.45
2022-12-02T07:54:38.476Z,7.88
2022-12-02T07:57:06.696Z,7.78
2022-12-02T07:59:34.878Z,8.00
2022-12-02T08:02:03.227Z,8.27
2022-12-02T08:04:31.560Z,8.35
2022-12-02T08:07:00.987Z,8.25
2022-12-02T08:09:29.262Z,7.35
2022-12-02T08:11:57.447Z,7.50
2022-12-02T08:14:25.634Z,8.05
2022-12-02T08:16:53.762Z,7.60
2022-12-02T08:19:21.938Z,8.45
2022-12-02T08:21:50.284Z,8.10
2022-12-02T08:24:19.903Z,7.50
2022-12-02T08:26:48.175Z,8.30
2022-12-02T08:29:16.247Z,8.45
2022-12-02T08:31:44.334Z,8.25
2022-12-02T08:34:12.478Z,7.68
2022-12-02T08:36:40.486Z,8.23
2022-12-02T08:39:08.636Z,8.00
2022-12-02T08:41:39.085Z,7.68
2022-12-02T08:44:07.355Z,8.43
2022-12-02T08:46:36.842Z,7.95
2022-12-02T08:49:06.412Z,7.47
2022-12-02T08:51:35.110Z,8.40
2022-12-02T08:54:04.736Z,7.60
2022-12-02T08:56:32.831Z,7.22
2022-12-02T08:59:03.087Z,7.75
2022-12-02T09:01:31.311Z,8.38
2022-12-02T09:03:59.465Z,7.05
2022-12-02T09:06:31.774Z,7.72
2022-12-02T09:09:02.638Z,7.85
2022-12-02T09:11:30.764Z,8.27
2022-12-02T09:13:59.099Z,8.18
2022-12-02T09:16:28.649Z,8.02
2022-12-02T09:18:57.867Z,7.97
2022-12-02T09:21:25.931Z,7.88
2022-12-02T09:23:54.069Z,7.50
2022-12-02T09:26:22.488Z,7.95
2022-12-02T09:28:50.736Z,7.95
2022-12-02T09:31:18.910Z,8.05
2022-12-02T09:33:48.371Z,7.35
2022-12-02T09:36:16.560Z,7.95
2022-12-02T09:38:44.965Z,8.27
2022-12-02T09:41:13.070Z,7.68
2022-12-02T09:43:42.284Z,7.88
2022-12-02T09:46:10.626Z,8.63
2022-12-02T09:48:39.652Z,7.88
2022-12-02T09:51:11.560Z,8.48
2022-12-02T09:53:41.707Z,8.48
2022-12-02T09:56:15.970Z,7.22
2022-12-02T09:58:44.523Z,7.38
2022-12-02T10:01:13.567Z,8.02
2022-12-02T10:03:43.585Z,7.47
2022-12-02T10:06:26.608Z,8.40
2022-12-02T10:08:57.019Z,7.93
2022-12-02T10:11:28.372Z,8.10
2022-12-02T10:13:57.840Z,7.82
2022-12-02T10:16:28.000Z,8.13
2022-12-02T10:19:03.475Z,7.75
2022-12-02T10:21:33.038Z,8.05
2022-12-02T10:24:03.069Z,7.80
2022-12-02T10:26:44.792Z,7.13
2022-12-02T10:29:18.391Z,7.25
2022-12-02T10:31:58.860Z,8.00
2022-12-02T10:34:28.630Z,7.70
2022-12-02T10:36:58.659Z,7.85
2022-12-02T10:39:34.396Z,8.07
2022-12-02T10:42:21.220Z,7.55
2022-12-02T10:45:10.335Z,8.13
2022-12-02T10:47:38.442Z,7.53
2022-12-02T10:50:17.792Z,7.68
2022-12-02T10:52:49.948Z,7.32
2022-12-02T10:55:19.510Z,8.10
2022-12-02T10:57:48.955Z,8.13
2022-12-02T11:00:21.254Z,7.75
2022-12-02T11:02:51.195Z,7.40
2022-12-02T11:05:21.935Z,8.52
2022-12-02T11:07:57.432Z,7.80
2022-12-02T11:10:28.010Z,7.70
2022-12-02T11:13:06.174Z,8.05
2022-12-02T11:15:43.507Z,7.97
2022-12-02T11:18:14.254Z,7.60
2022-12-02T11:20:44.833Z,7.88
2022-12-02T11:23:26.790Z,7.70
2022-12-02T11:26:09.232Z,7.65
2022-12-02T11:29:00.279Z,7.25
2022-12-02T11:31:29.524Z,7.70
2022-12-02T11:34:22.453Z,6.93
2022-12-02T11:37:34.567Z,7.75
2022-12-02T11:40:08.312Z,7.03
2022-12-02T11:42:36.685Z,7.03
2022-12-02T11:45:58.099Z,7.07
2022-12-02T11:48:26.871Z,7.25
2022-12-02T11:50:55.114Z,7.65
2022-12-02T11:53:25.651Z,7.25
2022-12-02T11:55:55.619Z,8.02
2022-12-02T11:58:26.784Z,7.45
2022-12-02T12:01:01.999Z,7.28
2022-12-02T12:03:30.316Z,7.88
2022-12-02T12:06:10.986Z,6.85
2022-12-02T12:08:40.092Z,7.68
2022-12-02T12:11:22.852Z,7.32
2022-12-02T12:14:08.970Z,7.40
2022-12-02T12:16:39.324Z,7.10
2022-12-02T12:19:26.785Z,7.28
2022-12-02T12:21:58.279Z,7.65
2022-12-02T12:24:34.797Z,7.13
2022-12-02T12:27:33.656Z,7.18
2022-12-02T12:30:01.914Z,7.28
2022-12-02T12:32:30.224Z,7.13
2022-12-02T12:34:58.367Z,8.13
2022-12-02T12:37:26.567Z,7.50
2022-12-02T12:39:55.039Z,7.78
2022-12-02T12:42:24.593Z,7.50
2022-12-02T12:44:53.622Z,7.97
2022-12-02T12:47:22.701Z,7.50
2022-12-02T12:49:51.449Z,7.75
2022-12-02T12:52:19.781Z,7.90
2022-12-02T12:54:51.057Z,7.78
2022-12-02T12:57:20.684Z,7.47
2022-12-02T12:59:50.649Z,7.20
2022-12-02T13:02:19.111Z,7.53
2022-12-02T13:04:47.292Z,7.30
2022-12-02T13:07:15.800Z,7.57
2022-12-02T13:09:43.925Z,7.80
2022-12-02T13:12:13.230Z,7.63
2022-12-02T13:14:41.623Z,7.07
2022-12-02T13:17:11.217Z,7.25
2022-12-02T13:19:39.449Z,7.25
2022-12-02T13:22:07.565Z,7.82
2022-12-02T13:24:42.577Z,7.10
2022-12-02T13:27:11.146Z,7.57
2022-12-02T13:29:39.368Z,7.38
2022-12-02T13:32:07.554Z,7.15
2022-12-02T13:34:37.172Z,7.72
2022-12-02T13:37:05.359Z,7.35
2022-12-02T13:39:33.874Z,7.70
2022-12-02T13:42:01.947Z,8.02
2022-12-02T13:44:30.042Z,7.55
2022-12-02T13:46:58.208Z,7.18
2022-12-02T13:49:26.538Z,8.02
2022-12-02T13:51:57.329Z,7.55
2022-12-02T13:54:25.360Z,7.38
2022-12-02T13:56:53.859Z,8.05
2022-12-02T13:59:22.081Z,7.65
2022-12-02T14:01:50.500Z,7.53
2022-12-02T14:04:18.896Z,7.82
2022-12-02T14:06:47.206Z,8.60
2022-12-02T14:09:16.777Z,8.15
2022-12-02T14:11:45.279Z,7.15
2022-12-02T14:14:13.446Z,7.57
2022-12-02T14:16:41.664Z,7.95
2022-12-02T14:19:09.830Z,7.57
2022-12-02T14:21:37.904Z,7.35
2022-12-02T14:24:06.545Z,8.13
2022-12-02T14:26:36.604Z,8.07
2022-12-02T14:29:04.712Z,7.63
2022-12-02T14:31:32.897Z,8.18
2022-12-02T14:34:16.208Z,7.90
2022-12-02T14:36:44.730Z,7.40
2022-12-02T14:39:12.933Z,7.68
2022-12-02T14:41:42.449Z,7.53
2022-12-02T14:44:10.634Z,8.00
2022-12-02T14:46:39.289Z,7.95
2022-12-02T14:49:37.829Z,7.70
2022-12-02T14:51:55.944Z,8.00
2022-12-02T14:54:24.182Z,7.60
2022-12-02T14:56:53.624Z,7.80
2022-12-02T14:59:21.783Z,8.60
2022-12-02T15:01:50.071Z,7.70
2022-12-02T15:04:18.697Z,7.22
2022-12-02T15:06:46.961Z,8.88
2022-12-02T15:09:15.855Z,8.57
2022-12-02T15:11:44.159Z,8.50
2022-12-02T15:14:13.666Z,8.23
2022-12-02T15:16:41.826Z,8.23
2022-12-02T15:19:10.199Z,8.95
2022-12-02T15:21:38.354Z,9.00
2022-12-02T15:24:07.210Z,8.52
2022-12-02T15:26:37.633Z,8.32
2022-12-02T15:29:05.884Z,8.65
2022-12-02T15:31:35.388Z,8.48
2022-12-02T15:34:03.526Z,9.00
2022-12-02T15:36:31.620Z,8.35
2022-12-02T15:38:59.684Z,8.95
2022-12-02T15:41:27.739Z,8.85
2022-12-02T15:43:55.822Z,8.68
2022-12-02T15:46:24.375Z,8.93
2022-12-02T15:48:53.958Z,8.07
2022-12-02T15:51:22.234Z,9.05
2022-12-02T15:53:50.417Z,9.30
2022-12-02T15:56:18.739Z,8.43
2022-12-02T15:58:50.163Z,8.63
2022-12-02T16:01:18.641Z,9.32
2022-12-02T16:03:46.950Z,10.02
2022-12-02T16:06:16.640Z,9.55
2022-12-02T16:08:45.407Z,9.85
2022-12-02T16:11:14.297Z,9.55
2022-12-02T16:13:42.648Z,9.05
2022-12-02T16:16:11.242Z,9.63
2022-12-02T16:18:39.410Z,9.20
2022-12-02T16:21:08.720Z,9.82
2022-12-02T16:23:38.267Z,9.13
2022-12-02T16:26:06.435Z,9.23
2022-12-02T16:28:34.539Z,9.43
2022-12-02T16:31:02.641Z,9.95
2022-12-02T16:33:30.713Z,9.32
2022-12-02T16:35:58.735Z,10.27
2022-12-02T16:38:26.971Z,8.93
2022-12-02T16:40:56.351Z,9.38
2022-12-02T16:43:24.436Z,9.85
2022-12-02T16:45:52.591Z,8.75
2022-12-02T16:48:21.278Z,9.25
2022-12-02T16:50:55.338Z,9.95
2022-12-02T16:53:24.141Z,9.23
2022-12-02T16:55:52.310Z,9.40
2022-12-02T16:58:21.932Z,8.95
2022-12-02T17:00:50.541Z,9.52
2022-12-02T17:03:18.804Z,10.20
2022-12-02T17:05:46.948Z,9.57
2022-12-02T17:08:15.071Z,9.13
2022-12-02T17:10:43.525Z,9.27
2022-12-02T17:13:11.667Z,9.73
2022-12-02T17:15:41.057Z,9.88
2022-12-02T17:18:09.222Z,8.65
2022-12-02T17:20:37.306Z,9.93
2022-12-02T17:23:05.508Z,8.95
2022-12-02T17:25:33.502Z,9.95
2022-12-02T17:28:01.574Z,9.90
2022-12-02T17:30:29.708Z,10.40
2022-12-02T17:32:59.218Z,9.95
2022-12-02T17:35:27.298Z,9.77
2022-12-02T17:37:55.528Z,9.90
2022-12-02T17:40:23.623Z,9.60
2022-12-02T17:42:51.752Z,9.32
2022-12-02T17:45:19.964Z,9.18
2022-12-02T17:47:48.263Z,9.30
2022-12-02T17:50:18.088Z,9.23
2022-12-02T17:52:46.099Z,9.82
2022-12-02T17:55:16.058Z,10.02
2022-12-02T17:57:44.115Z,10.52
2022-12-02T18:00:13.626Z,9.23
2022-12-02T18:02:41.952Z,9.57
2022-12-02T18:05:10.368Z,10.07
2022-12-02T18:07:39.952Z,10.07
2022-12-02T18:10:09.068Z,9.77
2022-12-02T18:12:37.075Z,9.93
2022-12-02T18:15:06.368Z,9.52
2022-12-02T18:17:34.595Z,9.50
2022-12-02T18:20:02.698Z,9.25
2022-12-02T18:22:30.979Z,9.50
2022-12-02T18:25:00.493Z,8.80
2022-12-02T18:27:29.382Z,9.35
2022-12-02T18:29:58.386Z,9.70
2022-12-02T18:32:26.476Z,9.90
2022-12-02T18:34:54.969Z,9.45
2022-12-02T18:37:23.615Z,9.23
2022-12-02T18:39:51.964Z,9.32
2022-12-02T18:42:21.603Z,9.52
2022-12-02T18:44:49.922Z,8.93
2022-12-02T18:47:18.327Z,9.80
2022-12-02T18:49:46.765Z,9.93
2022-12-02T18:52:15.045Z,9.65
2022-12-02T18:54:43.313Z,9.20
2022-12-02T18:57:11.431Z,9.75
2022-12-02T18:59:40.959Z,8.93
2022-12-02T19:02:10.685Z,9.73
2022-12-02T19:04:38.993Z,10.05
2022-12-02T19:07:09.435Z,9.20
2022-12-02T19:09:37.662Z,10.07
2022-12-02T19:12:06.297Z,9.68
2022-12-02T19:14:34.589Z,9.23
2022-12-02T19:17:04.287Z,9.63
2022-12-02T19:19:32.401Z,9.32
2022-12-02T19:22:00.629Z,8.80
2022-12-02T19:24:28.958Z,10.13
2022-12-02T19:26:57.063Z,8.68
2022-12-02T19:29:25.178Z,9.32
2022-12-02T19:31:53.328Z,10.05
2022-12-02T19:34:23.074Z,9.43
2022-12-02T19:36:51.119Z,9.60
2022-12-02T19:39:19.268Z,10.35
2022-12-02T19:41:47.668Z,9.85
2022-12-02T19:44:15.746Z,9.63
2022-12-02T19:46:43.988Z,8.93
2022-12-02T19:49:12.356Z,10.20
2022-12-02T19:51:41.811Z,9.65
2022-12-02T19:54:09.901Z,9.63
2022-12-02T19:56:38.033Z,9.88
2022-12-02T19:59:06.333Z,10.00
2022-12-02T20:01:38.831Z,9.18
2022-12-02T20:04:39.007Z,9.38
2022-12-02T20:06:56.927Z,9.85
2022-12-02T20:09:26.254Z,8.88
2022-12-02T20:11:54.391Z,9.18
2022-12-02T20:14:22.403Z,9.95
2022-12-02T20:16:50.558Z,9.25
2022-12-02T20:19:18.684Z,9.57
2022-12-02T20:21:46.751Z,9.82
2022-12-02T20:24:16.488Z,8.90
2022-12-02T20:26:44.846Z,8.65
2022-12-02T20:29:13.147Z,9.90
2022-12-02T20:31:41.611Z,9.35
2022-12-02T20:34:09.722Z,9.55
2022-12-02T20:36:38.020Z,9.20
2022-12-02T20:39:06.298Z,9.50
2022-12-02T20:41:36.226Z,9.07
2022-12-02T20:44:05.967Z,9.45
2022-12-02T20:46:34.074Z,8.88
2022-12-02T20:49:02.409Z,9.88
2022-12-02T20:51:30.642Z,8.52
2022-12-02T20:53:58.801Z,8.88
2022-12-02T20:56:26.878Z,8.50
2022-12-02T20:58:56.359Z,9.45
2022-12-02T21:01:24.774Z,9.57
2022-12-02T21:03:53.015Z,8.55
2022-12-02T21:06:21.085Z,8.65
2022-12-02T21:08:50.275Z,8.77
2022-12-02T21:11:18.562Z,8.65
2022-12-02T21:13:46.744Z,8.85
2022-12-02T21:16:16.307Z,9.13
2022-12-02T21:18:44.574Z,8.82
2022-12-02T21:21:13.086Z,8.70
2022-12-02T21:23:41.197Z,9.25
2022-12-02T21:26:09.362Z,8.77
2022-12-02T21:28:37.414Z,8.82
2022-12-02T21:31:05.764Z,8.32
2022-12-02T21:33:35.242Z,9.57
2022-12-02T21:36:04.745Z,8.52
2022-12-02T21:38:32.849Z,8.88
2022-12-02T21:41:00.878Z,9.05
2022-12-02T21:43:28.889Z,8.57
2022-12-02T21:45:58.862Z,8.75
2022-12-02T21:48:27.131Z,9.27
2022-12-02T21:50:57.311Z,8.18
2022-12-02T21:53:25.375Z,8.48
2022-12-02T21:55:53.578Z,8.90
2022-12-02T21:58:21.644Z,8.57
2022-12-02T22:01:09.789Z,8.60
2022-12-02T22:03:38.353Z,8.57
2022-12-02T22:06:08.435Z,7.82
2022-12-02T22:08:37.167Z,8.85
2022-12-02T22:11:05.331Z,8.50
2022-12-02T22:13:33.377Z,9.25
2022-12-02T22:16:01.787Z,8.57
2022-12-02T22:18:29.949Z,8.57
2022-12-02T22:20:58.078Z,8.13
2022-12-02T22:23:27.489Z,8.18
2022-12-02T22:25:55.757Z,8.40
2022-12-02T22:28:26.737Z,8.50
2022-12-02T22:30:54.934Z,8.45
2022-12-02T22:33:23.115Z,8.23
2022-12-02T22:35:51.191Z,8.85
2022-12-02T22:38:19.423Z,8.90
2022-12-02T22:40:49.470Z,8.65
2022-12-02T22:43:17.648Z,8.65
2022-12-02T22:45:45.762Z,8.77
2022-12-02T22:48:13.994Z,8.70
2022-12-02T22:50:42.130Z,8.38
2022-12-02T22:53:10.159Z,8.32
2022-12-02T22:55:38.307Z,8.20
2022-12-02T22:58:08.535Z,9.05
2022-12-02T23:00:36.734Z,8.52
2022-12-02T23:03:05.186Z,8.23
2022-12-02T23:05:33.611Z,8.20
2022-12-02T23:08:01.798Z,7.88
2022-12-02T23:10:32.175Z,8.77
2022-12-02T23:13:00.303Z,8.60
2022-12-02T23:15:38.468Z,7.75
2022-12-02T23:18:07.346Z,9.75
2022-12-02T23:20:35.544Z,7.75
2022-12-02T23:23:07.501Z,8.50
2022-12-02T23:25:35.722Z,8.30
2022-12-02T23:28:04.466Z,7.82
2022-12-02T23:30:34.268Z,8.15
2022-12-02T23:33:02.426Z,8.85
2022-12-02T23:35:30.744Z,8.30
2022-12-02T23:37:59.447Z,8.10
2022-12-02T23:40:27.790Z,8.48
2022-12-02T23:42:56.060Z,8.70
2022-12-02T23:45:24.226Z,8.32
2022-12-02T23:47:53.735Z,7.90
2022-12-02T23:50:21.938Z,8.68
2022-12-02T23:52:50.079Z,7.88
2022-12-02T23:55:18.411Z,8.65
2022-12-02T23:57:46.400Z,8.65
